sensor_id;sensor_type;location;lat;lon;timestamp;pressure;altitude;pressure_sealevel;temperature;humidity
4576;BME280;2300;51.874;8.430;2023-04-27T00:00:32;101149.25;;;4.22;82.95
4576;BME280;2300;51.874;8.430;2023-04-27T00:02:59;101142.63;;;4.24;82.56
4576;BME280;2300;51.874;8.430;2023-04-27T00:05:29;101144.75;;;4.14;83.03
4576;BME280;2300;51.874;8.430;2023-04-27T00:07:56;101143.38;;;4.10;83.57
4576;BME280;2300;51.874;8.430;2023-04-27T00:10:23;101147.81;;;4.11;83.29
4576;BME280;2300;51.874;8.430;2023-04-27T00:12:49;101147.31;;;4.07;83.13
4576;BME280;2300;51.874;8.430;2023-04-27T00:15:17;101149.19;;;4.07;83.29
4576;BME280;2300;51.874;8.430;2023-04-27T00:17:44;101147.19;;;4.01;83.01
4576;BME280;2300;51.874;8.430;2023-04-27T00:20:11;101151.44;;;4.03;82.81
4576;BME280;2300;51.874;8.430;2023-04-27T00:22:38;101155.50;;;3.99;83.90
4576;BME280;2300;51.874;8.430;2023-04-27T00:25:05;101150.31;;;3.90;84.33
4576;BME280;2300;51.874;8.430;2023-04-27T00:27:32;101153.03;;;3.90;84.30
4576;BME280;2300;51.874;8.430;2023-04-27T00:29:59;101153.06;;;3.82;84.37
4576;BME280;2300;51.874;8.430;2023-04-27T00:32:27;101150.00;;;3.85;84.48
4576;BME280;2300;51.874;8.430;2023-04-27T00:34:53;101155.00;;;3.73;84.81
4576;BME280;2300;51.874;8.430;2023-04-27T00:37:20;101140.88;;;3.78;84.36
4576;BME280;2300;51.874;8.430;2023-04-27T00:39:46;101095.06;;;3.36;85.26
4576;BME280;2300;51.874;8.430;2023-04-27T00:42:13;101145.06;;;3.57;86.27
4576;BME280;2300;51.874;8.430;2023-04-27T00:44:43;101142.97;;;3.59;85.96
4576;BME280;2300;51.874;8.430;2023-04-27T00:47:10;101148.25;;;3.53;86.46
4576;BME280;2300;51.874;8.430;2023-04-27T00:49:38;101152.16;;;3.58;86.01
4576;BME280;2300;51.874;8.430;2023-04-27T00:52:05;101155.53;;;3.60;86.35
4576;BME280;2300;51.874;8.430;2023-04-27T00:54:32;101154.53;;;3.53;86.46
4576;BME280;2300;51.874;8.430;2023-04-27T00:56:59;101132.19;;;3.43;86.46
4576;BME280;2300;51.874;8.430;2023-04-27T00:59:25;101155.06;;;3.49;86.25
4576;BME280;2300;51.874;8.430;2023-04-27T01:01:52;101157.09;;;3.55;86.25
4576;BME280;2300;51.874;8.430;2023-04-27T01:04:19;101167.09;;;3.62;86.36
4576;BME280;2300;51.874;8.430;2023-04-27T01:06:47;101169.81;;;3.54;86.04
4576;BME280;2300;51.874;8.430;2023-04-27T01:09:13;101169.81;;;3.62;86.10
4576;BME280;2300;51.874;8.430;2023-04-27T01:11:40;101170.50;;;3.56;86.61
4576;BME280;2300;51.874;8.430;2023-04-27T01:14:07;101187.78;;;3.63;87.06
4576;BME280;2300;51.874;8.430;2023-04-27T01:16:33;101187.75;;;3.72;86.79
4576;BME280;2300;51.874;8.430;2023-04-27T01:19:01;101178.75;;;3.71;86.47
4576;BME280;2300;51.874;8.430;2023-04-27T01:21:28;101179.63;;;3.72;86.92
4576;BME280;2300;51.874;8.430;2023-04-27T01:23:56;101196.56;;;3.82;86.81
4576;BME280;2300;51.874;8.430;2023-04-27T01:26:23;101195.53;;;3.83;87.25
4576;BME280;2300;51.874;8.430;2023-04-27T01:28:49;101192.81;;;3.83;87.05
4576;BME280;2300;51.874;8.430;2023-04-27T01:31:16;101200.22;;;3.89;87.32
4576;BME280;2300;51.874;8.430;2023-04-27T01:33:44;101166.19;;;3.70;86.74
4576;BME280;2300;51.874;8.430;2023-04-27T01:36:10;101204.13;;;3.94;87.21
4576;BME280;2300;51.874;8.430;2023-04-27T01:38:37;101206.03;;;3.86;87.43
4576;BME280;2300;51.874;8.430;2023-04-27T01:41:05;101211.78;;;3.91;88.18
4576;BME280;2300;51.874;8.430;2023-04-27T01:43:34;101212.16;;;3.88;88.42
4576;BME280;2300;51.874;8.430;2023-04-27T01:46:04;101212.50;;;3.85;89.39
4576;BME280;2300;51.874;8.430;2023-04-27T01:48:31;101197.78;;;3.71;89.30
4576;BME280;2300;51.874;8.430;2023-04-27T01:50:58;101205.13;;;3.62;89.07
4576;BME280;2300;51.874;8.430;2023-04-27T01:53:24;101225.06;;;3.86;89.14
4576;BME280;2300;51.874;8.430;2023-04-27T01:55:51;101224.34;;;3.92;89.51
4576;BME280;2300;51.874;8.430;2023-04-27T01:58:19;101223.34;;;3.93;87.97
4576;BME280;2300;51.874;8.430;2023-04-27T02:00:45;101227.41;;;3.89;88.34
4576;BME280;2300;51.874;8.430;2023-04-27T02:03:12;101230.13;;;3.89;88.43
4576;BME280;2300;51.874;8.430;2023-04-27T02:05:38;101233.69;;;3.89;88.02
4576;BME280;2300;51.874;8.430;2023-04-27T02:08:06;101222.72;;;3.83;87.30
4576;BME280;2300;51.874;8.430;2023-04-27T02:10:33;101228.09;;;3.91;87.56
4576;BME280;2300;51.874;8.430;2023-04-27T02:13:00;101213.88;;;3.81;86.42
4576;BME280;2300;51.874;8.430;2023-04-27T02:15:28;101223.22;;;3.78;86.40
4576;BME280;2300;51.874;8.430;2023-04-27T02:17:55;101229.16;;;3.82;85.26
4576;BME280;2300;51.874;8.430;2023-04-27T02:20:22;101234.84;;;3.95;84.90
4576;BME280;2300;51.874;8.430;2023-04-27T02:22:48;101232.19;;;3.87;84.45
4576;BME280;2300;51.874;8.430;2023-04-27T02:25:15;101245.94;;;3.85;84.35
4576;BME280;2300;51.874;8.430;2023-04-27T02:27:42;101236.41;;;3.89;84.03
4576;BME280;2300;51.874;8.430;2023-04-27T02:30:09;101239.88;;;3.75;84.08
4576;BME280;2300;51.874;8.430;2023-04-27T02:32:37;101243.38;;;3.84;84.22
4576;BME280;2300;51.874;8.430;2023-04-27T02:35:06;101222.72;;;3.75;83.13
4576;BME280;2300;51.874;8.430;2023-04-27T02:37:33;101237.13;;;3.83;83.71
4576;BME280;2300;51.874;8.430;2023-04-27T02:39:59;101231.56;;;3.77;83.07
4576;BME280;2300;51.874;8.430;2023-04-27T02:42:26;101234.28;;;3.69;83.27
4576;BME280;2300;51.874;8.430;2023-04-27T02:44:53;101232.28;;;3.62;83.56
4576;BME280;2300;51.874;8.430;2023-04-27T02:47:19;101237.44;;;3.41;83.66
4576;BME280;2300;51.874;8.430;2023-04-27T02:49:47;101234.03;;;3.39;84.26
4576;BME280;2300;51.874;8.430;2023-04-27T02:52:14;101233.69;;;3.34;84.70
4576;BME280;2300;51.874;8.430;2023-04-27T02:54:41;101217.09;;;3.21;84.55
4576;BME280;2300;51.874;8.430;2023-04-27T02:57:07;101217.47;;;2.94;84.20
4576;BME280;2300;51.874;8.430;2023-04-27T02:59:34;101229.16;;;2.86;84.89
4576;BME280;2300;51.874;8.430;2023-04-27T03:02:00;101227.47;;;2.77;85.96
4576;BME280;2300;51.874;8.430;2023-04-27T03:04:27;101225.94;;;2.74;86.31
4576;BME280;2300;51.874;8.430;2023-04-27T03:06:55;101219.13;;;2.54;86.87
4576;BME280;2300;51.874;8.430;2023-04-27T03:09:21;101225.41;;;2.47;87.04
4576;BME280;2300;51.874;8.430;2023-04-27T03:11:48;101229.63;;;2.49;86.78
4576;BME280;2300;51.874;8.430;2023-04-27T03:14:15;101221.50;;;2.33;87.23
4576;BME280;2300;51.874;8.430;2023-04-27T03:16:41;101216.03;;;2.25;88.04
4576;BME280;2300;51.874;8.430;2023-04-27T03:19:08;101207.53;;;2.12;88.41
4576;BME280;2300;51.874;8.430;2023-04-27T03:21:34;101222.09;;;2.11;89.11
4576;BME280;2300;51.874;8.430;2023-04-27T03:24:03;101218.19;;;2.13;88.66
4576;BME280;2300;51.874;8.430;2023-04-27T03:26:29;101199.22;;;2.05;88.37
4576;BME280;2300;51.874;8.430;2023-04-27T03:28:56;101210.19;;;1.96;89.31
4576;BME280;2300;51.874;8.430;2023-04-27T03:31:22;101229.00;;;1.97;88.76
4576;BME280;2300;51.874;8.430;2023-04-27T03:33:49;101209.41;;;1.69;88.29
4576;BME280;2300;51.874;8.430;2023-04-27T03:36:15;101214.84;;;1.77;89.62
4576;BME280;2300;51.874;8.430;2023-04-27T03:38:42;101214.84;;;1.69;89.91
4576;BME280;2300;51.874;8.430;2023-04-27T03:41:10;101214.50;;;1.72;89.38
4576;BME280;2300;51.874;8.430;2023-04-27T03:43:36;101199.47;;;1.44;89.86
4576;BME280;2300;51.874;8.430;2023-04-27T03:46:03;101218.34;;;1.62;89.75
4576;BME280;2300;51.874;8.430;2023-04-27T03:48:29;101216.94;;;1.49;88.77
4576;BME280;2300;51.874;8.430;2023-04-27T03:50:56;101218.78;;;1.49;90.52
4576;BME280;2300;51.874;8.430;2023-04-27T03:53:22;101219.06;;;1.38;90.47
4576;BME280;2300;51.874;8.430;2023-04-27T03:55:49;101219.22;;;1.36;90.68
4576;BME280;2300;51.874;8.430;2023-04-27T03:58:17;101222.09;;;1.35;89.69
4576;BME280;2300;51.874;8.430;2023-04-27T04:00:43;101224.88;;;1.25;91.19
4576;BME280;2300;51.874;8.430;2023-04-27T04:03:09;101210.47;;;1.17;91.09
4576;BME280;2300;51.874;8.430;2023-04-27T04:05:36;101232.94;;;1.09;91.41
4576;BME280;2300;51.874;8.430;2023-04-27T04:08:03;101224.38;;;1.22;91.21
4576;BME280;2300;51.874;8.430;2023-04-27T04:10:30;101225.38;;;1.21;90.95
4576;BME280;2300;51.874;8.430;2023-04-27T04:12:56;101225.38;;;1.21;91.26
4576;BME280;2300;51.874;8.430;2023-04-27T04:15:24;101238.91;;;1.21;91.27
4576;BME280;2300;51.874;8.430;2023-04-27T04:17:51;101232.50;;;1.22;90.98
4576;BME280;2300;51.874;8.430;2023-04-27T04:20:17;101237.38;;;1.18;90.85
4576;BME280;2300;51.874;8.430;2023-04-27T04:22:44;101238.84;;;1.13;91.02
4576;BME280;2300;51.874;8.430;2023-04-27T04:25:10;101255.00;;;1.22;91.32
4576;BME280;2300;51.874;8.430;2023-04-27T04:27:37;101255.84;;;1.23;91.86
4576;BME280;2300;51.874;8.430;2023-04-27T04:30:04;101260.56;;;1.21;92.01
4576;BME280;2300;51.874;8.430;2023-04-27T04:32:32;101260.88;;;1.18;91.85
4576;BME280;2300;51.874;8.430;2023-04-27T04:35:02;101236.63;;;1.08;91.52
4576;BME280;2300;51.874;8.430;2023-04-27T04:37:31;101266.34;;;1.26;91.39
4576;BME280;2300;51.874;8.430;2023-04-27T04:39:58;101275.81;;;1.30;90.61
4576;BME280;2300;51.874;8.430;2023-04-27T04:42:24;101272.19;;;1.39;90.91
4576;BME280;2300;51.874;8.430;2023-04-27T04:44:55;101278.97;;;1.43;90.24
4576;BME280;2300;51.874;8.430;2023-04-27T04:47:23;101276.97;;;1.45;90.30
4576;BME280;2300;51.874;8.430;2023-04-27T04:49:50;101265.84;;;1.56;89.62
4576;BME280;2300;51.874;8.430;2023-04-27T04:52:17;101271.44;;;1.55;90.19
4576;BME280;2300;51.874;8.430;2023-04-27T04:54:43;101277.78;;;1.71;89.54
4576;BME280;2300;51.874;8.430;2023-04-27T04:57:11;101273.06;;;1.73;89.92
4576;BME280;2300;51.874;8.430;2023-04-27T04:59:37;101277.16;;;1.77;90.44
4576;BME280;2300;51.874;8.430;2023-04-27T05:02:04;101280.94;;;1.92;90.30
4576;BME280;2300;51.874;8.430;2023-04-27T05:04:30;101279.63;;;1.97;90.38
4576;BME280;2300;51.874;8.430;2023-04-27T05:06:58;101277.94;;;1.96;90.84
4576;BME280;2300;51.874;8.430;2023-04-27T05:09:25;101278.31;;;2.59;91.26
4576;BME280;2300;51.874;8.430;2023-04-27T05:11:52;101277.34;;;5.11;92.14
4576;BME280;2300;51.874;8.430;2023-04-27T05:14:18;101273.19;;;7.96;83.68
4576;BME280;2300;51.874;8.430;2023-04-27T05:16:45;101270.94;;;10.38;74.86
4576;BME280;2300;51.874;8.430;2023-04-27T05:19:13;101256.47;;;12.18;67.03
4576;BME280;2300;51.874;8.430;2023-04-27T05:21:42;101284.38;;;13.94;61.10
4576;BME280;2300;51.874;8.430;2023-04-27T05:24:10;101285.06;;;15.04;55.95
4576;BME280;2300;51.874;8.430;2023-04-27T05:26:37;101287.50;;;15.29;53.80
4576;BME280;2300;51.874;8.430;2023-04-27T05:29:03;101289.03;;;15.36;53.68
4576;BME280;2300;51.874;8.430;2023-04-27T05:31:30;101291.53;;;16.21;51.95
4576;BME280;2300;51.874;8.430;2023-04-27T05:33:56;101292.09;;;17.10;49.60
4576;BME280;2300;51.874;8.430;2023-04-27T05:36:23;101284.22;;;17.02;48.33
4576;BME280;2300;51.874;8.430;2023-04-27T05:38:49;101297.03;;;16.82;49.22
4576;BME280;2300;51.874;8.430;2023-04-27T05:41:17;101302.28;;;17.05;49.02
4576;BME280;2300;51.874;8.430;2023-04-27T05:43:43;101305.47;;;17.40;48.49
4576;BME280;2300;51.874;8.430;2023-04-27T05:46:12;101313.34;;;17.85;47.45
4576;BME280;2300;51.874;8.430;2023-04-27T05:48:38;101316.97;;;17.86;48.13
4576;BME280;2300;51.874;8.430;2023-04-27T05:51:05;101309.88;;;18.47;45.27
4576;BME280;2300;51.874;8.430;2023-04-27T05:53:32;101312.03;;;17.61;47.29
4576;BME280;2300;51.874;8.430;2023-04-27T05:55:58;101316.06;;;18.59;45.32
4576;BME280;2300;51.874;8.430;2023-04-27T05:58:26;101314.28;;;17.96;46.61
4576;BME280;2300;51.874;8.430;2023-04-27T06:00:53;101323.19;;;18.45;46.05
4576;BME280;2300;51.874;8.430;2023-04-27T06:03:20;101299.03;;;18.51;45.70
4576;BME280;2300;51.874;8.430;2023-04-27T06:05:53;101323.63;;;19.87;43.22
4576;BME280;2300;51.874;8.430;2023-04-27T06:08:19;101314.00;;;20.69;41.66
4576;BME280;2300;51.874;8.430;2023-04-27T06:10:46;101245.63;;;19.41;42.65
4576;BME280;2300;51.874;8.430;2023-04-27T06:13:12;101309.41;;;20.08;43.55
4576;BME280;2300;51.874;8.430;2023-04-27T06:15:40;101311.31;;;19.32;43.30
4576;BME280;2300;51.874;8.430;2023-04-27T06:18:06;101309.72;;;19.82;43.43
4576;BME280;2300;51.874;8.430;2023-04-27T06:20:33;101306.63;;;19.43;43.28
4576;BME280;2300;51.874;8.430;2023-04-27T06:23:00;101303.25;;;19.31;43.50
4576;BME280;2300;51.874;8.430;2023-04-27T06:25:27;101299.09;;;19.58;43.97
4576;BME280;2300;51.874;8.430;2023-04-27T06:27:53;101287.44;;;18.64;43.94
4576;BME280;2300;51.874;8.430;2023-04-27T06:30:20;101306.09;;;19.76;43.32
4576;BME280;2300;51.874;8.430;2023-04-27T06:32:48;101309.41;;;20.08;42.65
4576;BME280;2300;51.874;8.430;2023-04-27T06:35:15;101300.97;;;19.12;43.12
4576;BME280;2300;51.874;8.430;2023-04-27T06:37:42;101307.72;;;18.59;44.38
4576;BME280;2300;51.874;8.430;2023-04-27T06:40:09;101311.09;;;18.71;43.67
4576;BME280;2300;51.874;8.430;2023-04-27T06:42:36;101309.25;;;18.87;43.56
4576;BME280;2300;51.874;8.430;2023-04-27T06:45:03;101318.81;;;19.16;43.63
4576;BME280;2300;51.874;8.430;2023-04-27T06:47:31;101315.97;;;18.91;43.21
4576;BME280;2300;51.874;8.430;2023-04-27T06:49:59;101321.59;;;19.11;42.79
4576;BME280;2300;51.874;8.430;2023-04-27T06:52:25;101304.63;;;17.40;45.53
4576;BME280;2300;51.874;8.430;2023-04-27T06:54:52;101288.75;;;17.67;44.78
4576;BME280;2300;51.874;8.430;2023-04-27T06:57:19;101304.66;;;16.09;47.16
4576;BME280;2300;51.874;8.430;2023-04-27T06:59:45;101309.19;;;17.02;46.22
4576;BME280;2300;51.874;8.430;2023-04-27T07:02:12;101315.00;;;17.23;45.83
4576;BME280;2300;51.874;8.430;2023-04-27T07:04:39;101312.69;;;17.14;45.27
4576;BME280;2300;51.874;8.430;2023-04-27T07:07:07;101315.22;;;16.94;45.73
4576;BME280;2300;51.874;8.430;2023-04-27T07:09:33;101312.53;;;15.34;47.96
4576;BME280;2300;51.874;8.430;2023-04-27T07:12:00;101309.19;;;14.92;47.48
4576;BME280;2300;51.874;8.430;2023-04-27T07:14:27;101277.13;;;14.79;47.75
4576;BME280;2300;51.874;8.430;2023-04-27T07:16:53;101302.56;;;14.93;47.56
4576;BME280;2300;51.874;8.430;2023-04-27T07:19:20;101302.25;;;13.91;50.03
4576;BME280;2300;51.874;8.430;2023-04-27T07:21:47;101301.41;;;13.67;49.51
4576;BME280;2300;51.874;8.430;2023-04-27T07:24:15;101298.41;;;13.57;49.39
4576;BME280;2300;51.874;8.430;2023-04-27T07:26:42;101296.72;;;12.85;49.59
4576;BME280;2300;51.874;8.430;2023-04-27T07:29:08;101281.69;;;12.51;51.64
4576;BME280;2300;51.874;8.430;2023-04-27T07:31:37;101290.44;;;12.78;52.15
4576;BME280;2300;51.874;8.430;2023-04-27T07:34:03;101285.66;;;12.19;52.24
4576;BME280;2300;51.874;8.430;2023-04-27T07:36:30;101296.03;;;11.98;52.78
4576;BME280;2300;51.874;8.430;2023-04-27T07:38:57;101296.72;;;11.76;52.11
4576;BME280;2300;51.874;8.430;2023-04-27T07:41:25;101296.81;;;11.62;53.26
4576;BME280;2300;51.874;8.430;2023-04-27T07:43:52;101293.50;;;11.79;53.16
4576;BME280;2300;51.874;8.430;2023-04-27T07:46:18;101291.66;;;11.41;53.96
4576;BME280;2300;51.874;8.430;2023-04-27T07:48:45;101294.34;;;11.23;54.81
4576;BME280;2300;51.874;8.430;2023-04-27T07:51:14;101275.59;;;11.13;55.66
4576;BME280;2300;51.874;8.430;2023-04-27T07:53:41;101275.84;;;11.37;54.80
4576;BME280;2300;51.874;8.430;2023-04-27T07:56:08;101284.53;;;11.65;55.63
4576;BME280;2300;51.874;8.430;2023-04-27T07:58:36;101291.44;;;11.92;55.33
4576;BME280;2300;51.874;8.430;2023-04-27T08:01:03;101285.97;;;12.29;53.80
4576;BME280;2300;51.874;8.430;2023-04-27T08:03:29;101281.53;;;12.64;53.00
4576;BME280;2300;51.874;8.430;2023-04-27T08:05:56;101283.63;;;12.32;51.57
4576;BME280;2300;51.874;8.430;2023-04-27T08:08:22;101284.22;;;12.34;51.74
4576;BME280;2300;51.874;8.430;2023-04-27T08:10:49;101280.31;;;12.05;51.68
4576;BME280;2300;51.874;8.430;2023-04-27T08:13:15;101285.50;;;11.95;52.60
4576;BME280;2300;51.874;8.430;2023-04-27T08:15:43;101282.28;;;11.80;52.64
4576;BME280;2300;51.874;8.430;2023-04-27T08:18:09;101272.66;;;11.89;51.69
4576;BME280;2300;51.874;8.430;2023-04-27T08:20:36;101315.03;;;12.06;53.91
4576;BME280;2300;51.874;8.430;2023-04-27T08:23:02;101280.56;;;12.22;53.81
4576;BME280;2300;51.874;8.430;2023-04-27T08:25:29;101283.38;;;12.34;52.66
4576;BME280;2300;51.874;8.430;2023-04-27T08:27:55;101271.97;;;12.30;53.32
4576;BME280;2300;51.874;8.430;2023-04-27T08:30:22;101237.63;;;11.78;52.68
4576;BME280;2300;51.874;8.430;2023-04-27T08:32:50;101274.66;;;12.19;53.21
4576;BME280;2300;51.874;8.430;2023-04-27T08:35:16;101292.31;;;12.29;54.46
4576;BME280;2300;51.874;8.430;2023-04-27T08:37:43;101290.16;;;12.49;53.86
4576;BME280;2300;51.874;8.430;2023-04-27T08:40:10;101292.03;;;12.85;55.18
4576;BME280;2300;51.874;8.430;2023-04-27T08:42:37;101294.03;;;12.78;48.49
4576;BME280;2300;51.874;8.430;2023-04-27T08:45:06;101294.31;;;12.59;49.06
4576;BME280;2300;51.874;8.430;2023-04-27T08:47:33;101287.41;;;12.49;51.05
4576;BME280;2300;51.874;8.430;2023-04-27T08:50:02;101278.31;;;11.94;51.89
4576;BME280;2300;51.874;8.430;2023-04-27T08:52:28;101272.81;;;12.31;50.97
4576;BME280;2300;51.874;8.430;2023-04-27T08:54:55;101280.81;;;12.87;51.30
4576;BME280;2300;51.874;8.430;2023-04-27T08:57:21;101283.81;;;13.27;51.55
4576;BME280;2300;51.874;8.430;2023-04-27T08:59:56;101254.72;;;12.89;50.77
4576;BME280;2300;51.874;8.430;2023-04-27T09:02:23;101277.31;;;12.62;48.69
4576;BME280;2300;51.874;8.430;2023-04-27T09:04:53;101251.34;;;12.21;49.16
4576;BME280;2300;51.874;8.430;2023-04-27T09:07:21;101286.50;;;12.85;47.66
4576;BME280;2300;51.874;8.430;2023-04-27T09:09:47;101296.22;;;12.40;46.83
4576;BME280;2300;51.874;8.430;2023-04-27T09:12:16;101286.63;;;11.88;53.08
4576;BME280;2300;51.874;8.430;2023-04-27T09:14:43;101284.44;;;12.51;51.13
4576;BME280;2300;51.874;8.430;2023-04-27T09:17:24;101265.94;;;12.03;49.22
4576;BME280;2300;51.874;8.430;2023-04-27T09:19:51;101287.00;;;12.82;50.46
4576;BME280;2300;51.874;8.430;2023-04-27T09:22:17;101244.19;;;12.50;48.23
4576;BME280;2300;51.874;8.430;2023-04-27T09:24:50;101276.56;;;12.36;46.95
4576;BME280;2300;51.874;8.430;2023-04-27T09:27:19;101280.63;;;12.16;49.19
4576;BME280;2300;51.874;8.430;2023-04-27T09:29:46;101274.13;;;11.92;48.51
4576;BME280;2300;51.874;8.430;2023-04-27T09:32:13;101269.78;;;11.53;47.23
4576;BME280;2300;51.874;8.430;2023-04-27T09:34:41;101268.03;;;11.65;48.16
4576;BME280;2300;51.874;8.430;2023-04-27T09:37:08;101268.25;;;11.82;47.81
4576;BME280;2300;51.874;8.430;2023-04-27T09:39:35;101253.88;;;11.30;47.87
4576;BME280;2300;51.874;8.430;2023-04-27T09:42:04;101268.66;;;11.36;48.36
4576;BME280;2300;51.874;8.430;2023-04-27T09:44:31;101271.28;;;11.98;48.62
4576;BME280;2300;51.874;8.430;2023-04-27T09:46:58;101194.91;;;11.51;47.26
4576;BME280;2300;51.874;8.430;2023-04-27T09:49:26;101270.66;;;12.69;47.55
4576;BME280;2300;51.874;8.430;2023-04-27T09:51:54;101264.84;;;13.19;46.75
4576;BME280;2300;51.874;8.430;2023-04-27T09:54:24;101261.78;;;13.50;48.67
4576;BME280;2300;51.874;8.430;2023-04-27T09:57:03;101262.50;;;13.34;45.61
4576;BME280;2300;51.874;8.430;2023-04-27T10:02:45;101266.63;;;13.13;47.99
4576;BME280;2300;51.874;8.430;2023-04-27T10:05:29;101253.28;;;12.69;46.73
4576;BME280;2300;51.874;8.430;2023-04-27T10:08:01;101253.00;;;12.40;46.16
4576;BME280;2300;51.874;8.430;2023-04-27T10:10:29;101250.13;;;12.17;47.58
4576;BME280;2300;51.874;8.430;2023-04-27T10:12:56;101243.63;;;12.11;47.18
4576;BME280;2300;51.874;8.430;2023-04-27T10:15:28;101241.53;;;12.25;49.39
4576;BME280;2300;51.874;8.430;2023-04-27T10:17:55;101238.84;;;12.37;47.55
4576;BME280;2300;51.874;8.430;2023-04-27T10:20:31;101244.94;;;12.57;50.17
4576;BME280;2300;51.874;8.430;2023-04-27T10:22:58;101241.06;;;12.94;48.88
4576;BME280;2300;51.874;8.430;2023-04-27T10:25:26;101242.84;;;13.42;45.72
4576;BME280;2300;51.874;8.430;2023-04-27T10:27:54;101243.78;;;13.36;45.75
4576;BME280;2300;51.874;8.430;2023-04-27T10:30:22;101223.47;;;13.07;47.41
4576;BME280;2300;51.874;8.430;2023-04-27T10:32:54;101239.00;;;13.66;46.12
4576;BME280;2300;51.874;8.430;2023-04-27T10:35:21;101241.28;;;13.58;47.75
4576;BME280;2300;51.874;8.430;2023-04-27T10:37:48;101233.22;;;13.33;46.24
4576;BME280;2300;51.874;8.430;2023-04-27T10:40:16;101221.94;;;13.23;47.33
4576;BME280;2300;51.874;8.430;2023-04-27T10:42:43;101229.03;;;13.30;45.83
4576;BME280;2300;51.874;8.430;2023-04-27T10:45:10;101223.00;;;13.22;47.89
4576;BME280;2300;51.874;8.430;2023-04-27T10:47:39;101223.38;;;13.14;46.79
4576;BME280;2300;51.874;8.430;2023-04-27T10:50:09;101226.59;;;13.11;45.74
4576;BME280;2300;51.874;8.430;2023-04-27T10:52:39;101219.28;;;13.05;46.29
4576;BME280;2300;51.874;8.430;2023-04-27T10:55:16;101218.25;;;13.64;47.20
4576;BME280;2300;51.874;8.430;2023-04-27T10:57:46;101209.34;;;13.85;46.74
4576;BME280;2300;51.874;8.430;2023-04-27T11:00:15;101209.97;;;13.75;46.97
4576;BME280;2300;51.874;8.430;2023-04-27T11:02:43;101194.69;;;13.96;45.25
4576;BME280;2300;51.874;8.430;2023-04-27T11:05:16;101211.41;;;13.66;47.71
4576;BME280;2300;51.874;8.430;2023-04-27T11:07:44;101180.28;;;13.94;44.35
4576;BME280;2300;51.874;8.430;2023-04-27T11:10:14;101189.69;;;13.70;45.49
4576;BME280;2300;51.874;8.430;2023-04-27T11:12:41;101182.47;;;13.80;45.56
4576;BME280;2300;51.874;8.430;2023-04-27T11:15:08;101198.69;;;13.89;44.83
4576;BME280;2300;51.874;8.430;2023-04-27T11:17:38;101200.00;;;13.74;46.43
4576;BME280;2300;51.874;8.430;2023-04-27T11:20:06;101199.19;;;13.62;45.56
4576;BME280;2300;51.874;8.430;2023-04-27T11:22:42;101141.72;;;13.24;46.28
4576;BME280;2300;51.874;8.430;2023-04-27T11:25:09;101187.53;;;13.84;46.51
4576;BME280;2300;51.874;8.430;2023-04-27T11:27:36;101194.25;;;13.88;45.04
4576;BME280;2300;51.874;8.430;2023-04-27T11:30:04;101182.97;;;13.54;43.83
4576;BME280;2300;51.874;8.430;2023-04-27T11:32:31;101174.94;;;13.64;45.58
4576;BME280;2300;51.874;8.430;2023-04-27T11:34:58;101166.31;;;13.49;43.23
4576;BME280;2300;51.874;8.430;2023-04-27T11:37:25;101185.63;;;13.72;47.02
4576;BME280;2300;51.874;8.430;2023-04-27T11:39:53;101192.00;;;13.61;45.00
4576;BME280;2300;51.874;8.430;2023-04-27T11:42:23;101177.69;;;13.64;46.22
4576;BME280;2300;51.874;8.430;2023-04-27T11:44:54;101178.66;;;13.81;45.63
4576;BME280;2300;51.874;8.430;2023-04-27T11:47:21;101169.88;;;14.08;45.48
4576;BME280;2300;51.874;8.430;2023-04-27T11:49:49;101161.25;;;14.04;47.29
4576;BME280;2300;51.874;8.430;2023-04-27T11:52:16;101181.13;;;14.46;46.51
4576;BME280;2300;51.874;8.430;2023-04-27T11:54:47;101185.97;;;14.39;45.55
4576;BME280;2300;51.874;8.430;2023-04-27T11:57:15;101180.06;;;14.47;42.62
4576;BME280;2300;51.874;8.430;2023-04-27T11:59:42;101172.28;;;13.69;43.95
4576;BME280;2300;51.874;8.430;2023-04-27T12:02:08;101173.13;;;13.93;46.10
4576;BME280;2300;51.874;8.430;2023-04-27T12:04:35;101191.09;;;14.47;42.07
4576;BME280;2300;51.874;8.430;2023-04-27T12:07:01;101151.66;;;13.72;45.61
4576;BME280;2300;51.874;8.430;2023-04-27T12:09:28;101178.53;;;13.76;47.64
4576;BME280;2300;51.874;8.430;2023-04-27T12:11:54;101159.66;;;13.97;45.30
4576;BME280;2300;51.874;8.430;2023-04-27T12:14:22;101178.16;;;14.08;44.04
4576;BME280;2300;51.874;8.430;2023-04-27T12:16:49;101171.31;;;13.75;43.95
4576;BME280;2300;51.874;8.430;2023-04-27T12:19:15;101134.50;;;13.70;44.32
4576;BME280;2300;51.874;8.430;2023-04-27T12:21:42;101164.41;;;14.25;43.13
4576;BME280;2300;51.874;8.430;2023-04-27T12:24:09;101163.22;;;14.20;44.08
4576;BME280;2300;51.874;8.430;2023-04-27T12:26:35;101164.69;;;14.11;43.53
4576;BME280;2300;51.874;8.430;2023-04-27T12:29:02;101167.91;;;14.48;46.74
4576;BME280;2300;51.874;8.430;2023-04-27T12:31:30;101166.94;;;14.54;45.78
4576;BME280;2300;51.874;8.430;2023-04-27T12:33:56;101153.63;;;14.68;44.47
4576;BME280;2300;51.874;8.430;2023-04-27T12:36:23;101165.78;;;15.12;41.70
4576;BME280;2300;51.874;8.430;2023-04-27T12:38:51;101163.00;;;14.67;42.11
4576;BME280;2300;51.874;8.430;2023-04-27T12:41:17;101164.84;;;14.61;44.43
4576;BME280;2300;51.874;8.430;2023-04-27T12:43:44;101163.00;;;14.67;42.77
4576;BME280;2300;51.874;8.430;2023-04-27T12:46:11;101158.09;;;14.41;44.50
4576;BME280;2300;51.874;8.430;2023-04-27T12:48:39;101159.28;;;14.45;44.62
4576;BME280;2300;51.874;8.430;2023-04-27T12:51:06;101151.75;;;14.40;43.17
4576;BME280;2300;51.874;8.430;2023-04-27T12:53:33;101153.19;;;14.31;41.37
4576;BME280;2300;51.874;8.430;2023-04-27T12:56:00;101159.44;;;14.38;42.97
4576;BME280;2300;51.874;8.430;2023-04-27T12:58:28;101141.59;;;14.29;42.51
4576;BME280;2300;51.874;8.430;2023-04-27T13:00:56;101163.09;;;14.72;43.83
4576;BME280;2300;51.874;8.430;2023-04-27T13:03:23;101160.38;;;14.89;44.01
4576;BME280;2300;51.874;8.430;2023-04-27T13:05:50;101153.03;;;15.11;42.44
4576;BME280;2300;51.874;8.430;2023-04-27T13:08:17;101117.00;;;14.44;41.66
4576;BME280;2300;51.874;8.430;2023-04-27T13:10:43;101123.97;;;14.63;42.62
4576;BME280;2300;51.874;8.430;2023-04-27T13:13:10;101143.22;;;14.87;42.81
4576;BME280;2300;51.874;8.430;2023-04-27T13:15:36;101144.38;;;14.91;43.42
4576;BME280;2300;51.874;8.430;2023-04-27T13:18:03;101136.47;;;14.83;42.86